CCM200 LFMD-LFBE
Flight info
| Callsign | CCM200 |
|---|---|
| Flight time | 0h 59m |
| Altitude | 28000 |
| Route | RUBIT DCT TRETS DCT ETOMA DCT BADAM DCT IBDER DCT IBE27 DCT BE090 DCT 4447N00024E DCT BE280 DCT BE270 DCT D274C |
| Aircraft | A319/M-SDE3FGHIRWY/LB1 |
Departure
| Time | 2026-05-05 18:59 |
|---|---|
| Airport | Cannes Mandelieu Airport (LFMD) |
Arrival
| Time | 2026-05-05 19:58 |
|---|---|
| Airport | Bergerac Dordogne-Périgord airport (LFBE) |
| Time | Latitude | Longitude | Altitude | Speed | Heading |
|---|---|---|---|---|---|
| 2026-05-05 17:17 | 43.54613 | 6.95322 | 22 ft | 0 kts | 173° |
| 2026-05-05 18:53 | 43.54608 | 6.95321 | 25 ft | 2 kts | 197° |
| 2026-05-05 18:53 | 43.54606 | 6.95309 | 24 ft | 1 kts | 287° |
| 2026-05-05 18:53 | 43.54621 | 6.95293 | 23 ft | 5 kts | 332° |
| 2026-05-05 18:53 | 43.54669 | 6.95277 | 23 ft | 10 kts | 351° |
| 2026-05-05 18:54 | 43.54750 | 6.95262 | 22 ft | 14 kts | 353° |
| 2026-05-05 18:54 | 43.54861 | 6.95244 | 22 ft | 18 kts | 351° |
| 2026-05-05 18:54 | 43.54998 | 6.95218 | 22 ft | 22 kts | 353° |
| 2026-05-05 18:54 | 43.55159 | 6.95190 | 22 ft | 25 kts | 352° |
| 2026-05-05 18:55 | 43.55323 | 6.95162 | 22 ft | 16 kts | 354° |
| 2026-05-05 18:55 | 43.55389 | 6.95151 | 23 ft | 0 kts | 347° |
| 2026-05-05 18:56 | 43.55392 | 6.95150 | 24 ft | 2 kts | 347° |
| 2026-05-05 18:56 | 43.55420 | 6.95130 | 24 ft | 7 kts | 317° |
| 2026-05-05 18:56 | 43.55433 | 6.95093 | 22 ft | 1 kts | 274° |
| 2026-05-05 18:56 | 43.55433 | 6.95065 | 24 ft | 5 kts | 266° |
| 2026-05-05 18:57 | 43.55425 | 6.95005 | 25 ft | 7 kts | 245° |
| 2026-05-05 18:57 | 43.55379 | 6.94984 | 24 ft | 0 kts | 174° |
| 2026-05-05 18:59 | 43.55329 | 6.94992 | 25 ft | 32 kts | 171° |
| 2026-05-05 18:59 | 43.54790 | 6.95089 | 23 ft | 118 kts | 173° |
| 2026-05-05 18:59 | 43.53828 | 6.95273 | 431 ft | 142 kts | 172° |
| 2026-05-05 18:59 | 43.52853 | 6.95572 | 1264 ft | 147 kts | 159° |
| 2026-05-05 19:00 | 43.51899 | 6.96168 | 1997 ft | 159 kts | 154° |
| 2026-05-05 19:00 | 43.50773 | 6.96934 | 2082 ft | 205 kts | 155° |
| 2026-05-05 19:00 | 43.49414 | 6.97790 | 1989 ft | 230 kts | 156° |
| 2026-05-05 19:00 | 43.47935 | 6.98953 | 1998 ft | 254 kts | 137° |
| 2026-05-05 19:01 | 43.46846 | 7.00881 | 1993 ft | 257 kts | 123° |
| 2026-05-05 19:01 | 43.45901 | 7.02962 | 1991 ft | 256 kts | 123° |
| 2026-05-05 19:01 | 43.44887 | 7.04983 | 1994 ft | 257 kts | 127° |
| 2026-05-05 19:01 | 43.43787 | 7.06911 | 1997 ft | 255 kts | 130° |
| 2026-05-05 19:02 | 43.42627 | 7.08773 | 1997 ft | 257 kts | 131° |
| 2026-05-05 19:02 | 43.41436 | 7.10608 | 1994 ft | 256 kts | 133° |
| 2026-05-05 19:02 | 43.40198 | 7.12355 | 1952 ft | 257 kts | 146° |
| 2026-05-05 19:02 | 43.38557 | 7.13243 | 2240 ft | 256 kts | 177° |
| 2026-05-05 19:03 | 43.36842 | 7.12813 | 3210 ft | 253 kts | 208° |
| 2026-05-05 19:03 | 43.35527 | 7.11245 | 4466 ft | 253 kts | 236° |
| 2026-05-05 19:03 | 43.34930 | 7.09000 | 5609 ft | 258 kts | 264° |
| 2026-05-05 19:03 | 43.35117 | 7.06544 | 6802 ft | 261 kts | 281° |
| 2026-05-05 19:04 | 43.35609 | 7.04123 | 7903 ft | 265 kts | 284° |
| 2026-05-05 19:04 | 43.36000 | 7.01646 | 8519 ft | 265 kts | 273° |
| 2026-05-05 19:04 | 43.35949 | 6.99126 | 8802 ft | 264 kts | 259° |
| 2026-05-05 19:04 | 43.35491 | 6.96689 | 8933 ft | 264 kts | 250° |
| 2026-05-05 19:05 | 43.34793 | 6.94361 | 8939 ft | 263 kts | 245° |
| 2026-05-05 19:05 | 43.33985 | 6.92108 | 8945 ft | 263 kts | 243° |
| 2026-05-05 19:05 | 43.33134 | 6.89863 | 9214 ft | 266 kts | 242° |
| 2026-05-05 19:05 | 43.32275 | 6.87615 | 10142 ft | 264 kts | 242° |
| 2026-05-05 19:06 | 43.31402 | 6.85316 | 10917 ft | 281 kts | 242° |
| 2026-05-05 19:06 | 43.30464 | 6.82827 | 11347 ft | 306 kts | 242° |
| 2026-05-05 19:06 | 43.29463 | 6.80161 | 12087 ft | 317 kts | 242° |
| 2026-05-05 19:06 | 43.28455 | 6.77467 | 13090 ft | 320 kts | 242° |
| 2026-05-05 19:07 | 43.27432 | 6.74736 | 14043 ft | 324 kts | 242° |
| 2026-05-05 19:07 | 43.26745 | 6.72904 | 14633 ft | 326 kts | 241° |
| 2026-05-05 19:07 | 43.25357 | 6.69209 | 15773 ft | 331 kts | 241° |
| 2026-05-05 19:07 | 43.24293 | 6.66382 | 16634 ft | 335 kts | 241° |
| 2026-05-05 19:08 | 43.23229 | 6.63510 | 17452 ft | 341 kts | 244° |
| 2026-05-05 19:08 | 43.22433 | 6.60420 | 18263 ft | 348 kts | 253° |
| 2026-05-05 19:08 | 43.22048 | 6.57105 | 19012 ft | 354 kts | 263° |
| 2026-05-05 19:08 | 43.22054 | 6.53712 | 19818 ft | 358 kts | 267° |
| 2026-05-05 19:09 | 43.22114 | 6.50288 | 20584 ft | 360 kts | 267° |
| 2026-05-05 19:09 | 43.22165 | 6.46856 | 21376 ft | 361 kts | 266° |
| 2026-05-05 19:09 | 43.22328 | 6.43395 | 22211 ft | 365 kts | 272° |
| 2026-05-05 19:09 | 43.22789 | 6.39922 | 22821 ft | 374 kts | 278° |
| 2026-05-05 19:10 | 43.23567 | 6.36500 | 23614 ft | 380 kts | 284° |
| 2026-05-05 19:10 | 43.24540 | 6.33106 | 24259 ft | 382 kts | 284° |
| 2026-05-05 19:10 | 43.25494 | 6.29755 | 24918 ft | 382 kts | 284° |
| 2026-05-05 19:10 | 43.26461 | 6.26336 | 25534 ft | 385 kts | 284° |
| 2026-05-05 19:11 | 43.27431 | 6.22889 | 26083 ft | 387 kts | 284° |
| 2026-05-05 19:11 | 43.28399 | 6.19448 | 26740 ft | 387 kts | 283° |
| 2026-05-05 19:11 | 43.29372 | 6.15986 | 27225 ft | 391 kts | 283° |
| 2026-05-05 19:11 | 43.30354 | 6.12484 | 27713 ft | 393 kts | 283° |
| 2026-05-05 19:12 | 43.31339 | 6.08973 | 27907 ft | 394 kts | 283° |
| 2026-05-05 19:12 | 43.32325 | 6.05456 | 27929 ft | 395 kts | 283° |
| 2026-05-05 19:12 | 43.33310 | 6.01937 | 27928 ft | 394 kts | 283° |
| 2026-05-05 19:12 | 43.34293 | 5.98415 | 27928 ft | 394 kts | 283° |
| 2026-05-05 19:13 | 43.35262 | 5.94936 | 27926 ft | 394 kts | 283° |
| 2026-05-05 19:13 | 43.36240 | 5.91419 | 27917 ft | 394 kts | 283° |
| 2026-05-05 19:13 | 43.37220 | 5.87891 | 27915 ft | 394 kts | 283° |
| 2026-05-05 19:13 | 43.38195 | 5.84377 | 27915 ft | 393 kts | 283° |
| 2026-05-05 19:14 | 43.39170 | 5.80859 | 27914 ft | 394 kts | 283° |
| 2026-05-05 19:14 | 43.40143 | 5.77338 | 27913 ft | 394 kts | 283° |
| 2026-05-05 19:14 | 43.41117 | 5.73816 | 27914 ft | 394 kts | 283° |
| 2026-05-05 19:14 | 43.42119 | 5.70303 | 27941 ft | 396 kts | 284° |
| 2026-05-05 19:15 | 43.43209 | 5.66808 | 27908 ft | 399 kts | 285° |
| 2026-05-05 19:15 | 43.44331 | 5.63304 | 27917 ft | 399 kts | 285° |
| 2026-05-05 19:15 | 43.45073 | 5.60982 | 27915 ft | 399 kts | 285° |
| 2026-05-05 19:15 | 43.46556 | 5.56300 | 27909 ft | 399 kts | 285° |
| 2026-05-05 19:16 | 43.47283 | 5.53980 | 27906 ft | 398 kts | 285° |
| 2026-05-05 19:16 | 43.48377 | 5.50476 | 27907 ft | 398 kts | 285° |
| 2026-05-05 19:16 | 43.49467 | 5.46970 | 27912 ft | 398 kts | 285° |
| 2026-05-05 19:16 | 43.50556 | 5.43457 | 27922 ft | 399 kts | 285° |
| 2026-05-05 19:17 | 43.51650 | 5.39918 | 27930 ft | 400 kts | 285° |
| 2026-05-05 19:17 | 43.52742 | 5.36388 | 27929 ft | 400 kts | 285° |
| 2026-05-05 19:17 | 43.53817 | 5.32909 | 27967 ft | 400 kts | 285° |
| 2026-05-05 19:17 | 43.54906 | 5.29381 | 27935 ft | 402 kts | 285° |
| 2026-05-05 19:18 | 43.55998 | 5.25837 | 27938 ft | 402 kts | 285° |
| 2026-05-05 19:18 | 43.57092 | 5.22286 | 27934 ft | 401 kts | 285° |
| 2026-05-05 19:18 | 43.58179 | 5.18751 | 27932 ft | 400 kts | 285° |
| 2026-05-05 19:18 | 43.59267 | 5.15207 | 27929 ft | 401 kts | 285° |
| 2026-05-05 19:19 | 43.60355 | 5.11656 | 27910 ft | 401 kts | 285° |
| 2026-05-05 19:19 | 43.61443 | 5.08102 | 27911 ft | 401 kts | 285° |
| 2026-05-05 19:19 | 43.62527 | 5.04556 | 27911 ft | 401 kts | 285° |
| 2026-05-05 19:19 | 43.63610 | 5.01008 | 27911 ft | 401 kts | 285° |
| 2026-05-05 19:20 | 43.64692 | 4.97459 | 27911 ft | 401 kts | 285° |
| 2026-05-05 19:20 | 43.65775 | 4.93904 | 27940 ft | 402 kts | 284° |
| 2026-05-05 19:20 | 43.66845 | 4.90387 | 27905 ft | 402 kts | 284° |
| 2026-05-05 19:20 | 43.67891 | 4.86820 | 27905 ft | 399 kts | 282° |
| 2026-05-05 19:21 | 43.68814 | 4.83206 | 27905 ft | 397 kts | 281° |
| 2026-05-05 19:21 | 43.69706 | 4.79583 | 27906 ft | 398 kts | 281° |
| 2026-05-05 19:21 | 43.70604 | 4.75960 | 27908 ft | 398 kts | 281° |
| 2026-05-05 19:21 | 43.71501 | 4.72343 | 27916 ft | 398 kts | 281° |
| 2026-05-05 19:22 | 43.72397 | 4.68726 | 27913 ft | 398 kts | 281° |
| 2026-05-05 19:22 | 43.73293 | 4.65101 | 27916 ft | 398 kts | 281° |
| 2026-05-05 19:22 | 43.74187 | 4.61479 | 27919 ft | 397 kts | 280° |
| 2026-05-05 19:22 | 43.75077 | 4.57874 | 27910 ft | 396 kts | 280° |
| 2026-05-05 19:23 | 43.75951 | 4.54318 | 27914 ft | 395 kts | 280° |
| 2026-05-05 19:23 | 43.76835 | 4.50713 | 27910 ft | 395 kts | 280° |
| 2026-05-05 19:23 | 43.77717 | 4.47110 | 27909 ft | 395 kts | 280° |
| 2026-05-05 19:23 | 43.78598 | 4.43506 | 27910 ft | 395 kts | 280° |
| 2026-05-05 19:24 | 43.79478 | 4.39901 | 27914 ft | 395 kts | 280° |
| 2026-05-05 19:24 | 43.80357 | 4.36293 | 27913 ft | 395 kts | 280° |
| 2026-05-05 19:24 | 43.81239 | 4.32672 | 27909 ft | 395 kts | 280° |
| 2026-05-05 19:24 | 43.82105 | 4.29107 | 27908 ft | 396 kts | 280° |
| 2026-05-05 19:25 | 43.82992 | 4.25451 | 27910 ft | 396 kts | 280° |
| 2026-05-05 19:25 | 43.83855 | 4.21885 | 27912 ft | 395 kts | 280° |
| 2026-05-05 19:25 | 43.84729 | 4.18270 | 27942 ft | 397 kts | 281° |
| 2026-05-05 19:25 | 43.85607 | 4.14615 | 27907 ft | 401 kts | 281° |
| 2026-05-05 19:26 | 43.86488 | 4.10955 | 27907 ft | 400 kts | 281° |
| 2026-05-05 19:26 | 43.87369 | 4.07299 | 27907 ft | 400 kts | 281° |
| 2026-05-05 19:26 | 43.88251 | 4.03631 | 27906 ft | 400 kts | 281° |
| 2026-05-05 19:26 | 43.89131 | 3.99966 | 27905 ft | 400 kts | 281° |
| 2026-05-05 19:27 | 43.90007 | 3.96307 | 27905 ft | 400 kts | 281° |
| 2026-05-05 19:27 | 43.90872 | 3.92693 | 27907 ft | 400 kts | 281° |
| 2026-05-05 19:27 | 43.91746 | 3.89034 | 27906 ft | 400 kts | 281° |
| 2026-05-05 19:27 | 43.92619 | 3.85372 | 27906 ft | 400 kts | 281° |
| 2026-05-05 19:28 | 43.93491 | 3.81707 | 27908 ft | 400 kts | 281° |
| 2026-05-05 19:28 | 43.94366 | 3.78010 | 27913 ft | 409 kts | 281° |
| 2026-05-05 19:28 | 43.95255 | 3.74250 | 27908 ft | 409 kts | 281° |
| 2026-05-05 19:28 | 43.96144 | 3.70508 | 27910 ft | 408 kts | 281° |
| 2026-05-05 19:29 | 43.97032 | 3.66761 | 27921 ft | 408 kts | 281° |
| 2026-05-05 19:29 | 43.97911 | 3.63031 | 27907 ft | 411 kts | 281° |
| 2026-05-05 19:29 | 43.98800 | 3.59261 | 27908 ft | 409 kts | 281° |
| 2026-05-05 19:29 | 43.99685 | 3.55500 | 27908 ft | 409 kts | 281° |
| 2026-05-05 19:30 | 44.00566 | 3.51745 | 27909 ft | 410 kts | 281° |
| 2026-05-05 19:30 | 44.01447 | 3.47983 | 27912 ft | 410 kts | 281° |
| 2026-05-05 19:30 | 44.02329 | 3.44218 | 27916 ft | 409 kts | 281° |
| 2026-05-05 19:30 | 44.03208 | 3.40452 | 27914 ft | 409 kts | 281° |
| 2026-05-05 19:31 | 44.04085 | 3.36677 | 27918 ft | 410 kts | 281° |
| 2026-05-05 19:31 | 44.04964 | 3.32904 | 27923 ft | 410 kts | 281° |
| 2026-05-05 19:31 | 44.05841 | 3.29138 | 27920 ft | 409 kts | 281° |
| 2026-05-05 19:31 | 44.06717 | 3.25369 | 27922 ft | 409 kts | 281° |
| 2026-05-05 19:32 | 44.07592 | 3.21597 | 27922 ft | 409 kts | 281° |
| 2026-05-05 19:32 | 44.08465 | 3.17827 | 27925 ft | 410 kts | 281° |
| 2026-05-05 19:32 | 44.09384 | 3.14059 | 27925 ft | 411 kts | 283° |
| 2026-05-05 19:32 | 44.10420 | 3.10386 | 27929 ft | 414 kts | 285° |
| 2026-05-05 19:33 | 44.11510 | 3.06679 | 27923 ft | 413 kts | 285° |
| 2026-05-05 19:33 | 44.12596 | 3.02964 | 27931 ft | 416 kts | 285° |
| 2026-05-05 19:33 | 44.13673 | 2.99225 | 27926 ft | 416 kts | 285° |
| 2026-05-05 19:33 | 44.14738 | 2.95485 | 27919 ft | 415 kts | 285° |
| 2026-05-05 19:34 | 44.15794 | 2.91748 | 27922 ft | 415 kts | 285° |
| 2026-05-05 19:34 | 44.16847 | 2.88003 | 27929 ft | 415 kts | 285° |
| 2026-05-05 19:34 | 44.17896 | 2.84263 | 27924 ft | 415 kts | 285° |
| 2026-05-05 19:35 | 44.19994 | 2.76758 | 27931 ft | 416 kts | 285° |
| 2026-05-05 19:35 | 44.21043 | 2.72997 | 27929 ft | 416 kts | 285° |
| 2026-05-05 19:35 | 44.22093 | 2.69234 | 27931 ft | 416 kts | 285° |
| 2026-05-05 19:35 | 44.23131 | 2.65504 | 27944 ft | 419 kts | 285° |
| 2026-05-05 19:36 | 44.24189 | 2.61685 | 27934 ft | 422 kts | 285° |
| 2026-05-05 19:36 | 44.25246 | 2.57875 | 27934 ft | 421 kts | 285° |
| 2026-05-05 19:36 | 44.26300 | 2.54072 | 27933 ft | 421 kts | 285° |
| 2026-05-05 19:36 | 44.27357 | 2.50255 | 27933 ft | 421 kts | 285° |
| 2026-05-05 19:37 | 44.28409 | 2.46445 | 27931 ft | 421 kts | 285° |
| 2026-05-05 19:37 | 44.29460 | 2.42636 | 27932 ft | 421 kts | 285° |
| 2026-05-05 19:37 | 44.30512 | 2.38816 | 27939 ft | 421 kts | 285° |
| 2026-05-05 19:37 | 44.31560 | 2.35002 | 27939 ft | 421 kts | 285° |
| 2026-05-05 19:38 | 44.32608 | 2.31184 | 27935 ft | 421 kts | 285° |
| 2026-05-05 19:38 | 44.33654 | 2.27364 | 27948 ft | 422 kts | 285° |
| 2026-05-05 19:38 | 44.34701 | 2.23525 | 27682 ft | 423 kts | 286° |
| 2026-05-05 19:38 | 44.35753 | 2.19670 | 26952 ft | 426 kts | 286° |
| 2026-05-05 19:39 | 44.36812 | 2.15782 | 26101 ft | 428 kts | 286° |
| 2026-05-05 19:39 | 44.37866 | 2.11914 | 25593 ft | 421 kts | 287° |
| 2026-05-05 19:39 | 44.38897 | 2.08139 | 25181 ft | 411 kts | 286° |
| 2026-05-05 19:39 | 44.39907 | 2.04422 | 24595 ft | 407 kts | 287° |
| 2026-05-05 19:40 | 44.40891 | 2.00786 | 24036 ft | 403 kts | 287° |
| 2026-05-05 19:40 | 44.41876 | 1.97138 | 23484 ft | 399 kts | 287° |
| 2026-05-05 19:40 | 44.42851 | 1.93526 | 22860 ft | 395 kts | 287° |
| 2026-05-05 19:40 | 44.43813 | 1.89959 | 22308 ft | 389 kts | 287° |
| 2026-05-05 19:41 | 44.44765 | 1.86431 | 21728 ft | 385 kts | 287° |
| 2026-05-05 19:41 | 44.45701 | 1.82951 | 21180 ft | 380 kts | 287° |
| 2026-05-05 19:41 | 44.46628 | 1.79500 | 20640 ft | 376 kts | 287° |
| 2026-05-05 19:41 | 44.47543 | 1.76089 | 20066 ft | 372 kts | 287° |
| 2026-05-05 19:42 | 44.48448 | 1.72710 | 19528 ft | 369 kts | 287° |
| 2026-05-05 19:42 | 44.49346 | 1.69355 | 18994 ft | 366 kts | 287° |
| 2026-05-05 19:42 | 44.50234 | 1.66028 | 18452 ft | 363 kts | 287° |
| 2026-05-05 19:42 | 44.51116 | 1.62722 | 17869 ft | 360 kts | 287° |
| 2026-05-05 19:43 | 44.51988 | 1.59455 | 17332 ft | 356 kts | 287° |
| 2026-05-05 19:43 | 44.52848 | 1.56222 | 16808 ft | 352 kts | 287° |
| 2026-05-05 19:43 | 44.53698 | 1.53024 | 16283 ft | 348 kts | 287° |
| 2026-05-05 19:43 | 44.54540 | 1.49852 | 15751 ft | 346 kts | 287° |
| 2026-05-05 19:44 | 44.55373 | 1.46711 | 15234 ft | 343 kts | 287° |
| 2026-05-05 19:44 | 44.56199 | 1.43590 | 14725 ft | 340 kts | 287° |
| 2026-05-05 19:44 | 44.57017 | 1.40494 | 14211 ft | 338 kts | 287° |
| 2026-05-05 19:44 | 44.57829 | 1.37414 | 13687 ft | 336 kts | 287° |
| 2026-05-05 19:45 | 44.58635 | 1.34357 | 13156 ft | 332 kts | 287° |
| 2026-05-05 19:45 | 44.59430 | 1.31337 | 12677 ft | 328 kts | 287° |
| 2026-05-05 19:45 | 44.60216 | 1.28346 | 12171 ft | 325 kts | 287° |
| 2026-05-05 19:45 | 44.60993 | 1.25386 | 11691 ft | 322 kts | 288° |
| 2026-05-05 19:46 | 44.61761 | 1.22454 | 11211 ft | 319 kts | 288° |
| 2026-05-05 19:46 | 44.62522 | 1.19549 | 10737 ft | 315 kts | 288° |
| 2026-05-05 19:46 | 44.63275 | 1.16668 | 10281 ft | 312 kts | 288° |
| 2026-05-05 19:46 | 44.64001 | 1.13892 | 10130 ft | 299 kts | 288° |
| 2026-05-05 19:47 | 44.64703 | 1.11207 | 10009 ft | 286 kts | 288° |
| 2026-05-05 19:47 | 44.65378 | 1.08635 | 9857 ft | 277 kts | 288° |
| 2026-05-05 19:47 | 44.66098 | 1.06104 | 9755 ft | 282 kts | 294° |
| 2026-05-05 19:47 | 44.67123 | 1.03744 | 9508 ft | 285 kts | 304° |
| 2026-05-05 19:48 | 44.68406 | 1.01620 | 9160 ft | 284 kts | 309° |
| 2026-05-05 19:48 | 44.69699 | 0.99543 | 8788 ft | 281 kts | 309° |
| 2026-05-05 19:48 | 44.70975 | 0.97479 | 8421 ft | 277 kts | 308° |
| 2026-05-05 19:48 | 44.72229 | 0.95442 | 8061 ft | 274 kts | 308° |
| 2026-05-05 19:49 | 44.73469 | 0.93427 | 7701 ft | 271 kts | 308° |
| 2026-05-05 19:49 | 44.74284 | 0.92100 | 7467 ft | 269 kts | 308° |
| 2026-05-05 19:49 | 44.75891 | 0.89480 | 7003 ft | 265 kts | 308° |
| 2026-05-05 19:49 | 44.77092 | 0.87518 | 6639 ft | 264 kts | 308° |
| 2026-05-05 19:50 | 44.78286 | 0.85566 | 6280 ft | 262 kts | 308° |
| 2026-05-05 19:50 | 44.79473 | 0.83630 | 5919 ft | 260 kts | 308° |
| 2026-05-05 19:50 | 44.80496 | 0.81555 | 5467 ft | 258 kts | 292° |
| 2026-05-05 19:50 | 44.80965 | 0.79140 | 5083 ft | 255 kts | 274° |
| 2026-05-05 19:51 | 44.81085 | 0.76654 | 4873 ft | 254 kts | 273° |
| 2026-05-05 19:51 | 44.81217 | 0.74148 | 4633 ft | 260 kts | 274° |
| 2026-05-05 19:51 | 44.81357 | 0.71598 | 4296 ft | 261 kts | 274° |
| 2026-05-05 19:51 | 44.81500 | 0.69077 | 4098 ft | 253 kts | 274° |
| 2026-05-05 19:52 | 44.81637 | 0.66611 | 3740 ft | 250 kts | 274° |
| 2026-05-05 19:52 | 44.81769 | 0.64256 | 3590 ft | 233 kts | 274° |
| 2026-05-05 19:52 | 44.81857 | 0.62054 | 3457 ft | 217 kts | 269° |
| 2026-05-05 19:52 | 44.81720 | 0.60007 | 3353 ft | 203 kts | 260° |
| 2026-05-05 19:53 | 44.81402 | 0.58107 | 3228 ft | 197 kts | 257° |
| 2026-05-05 19:53 | 44.81080 | 0.56255 | 3012 ft | 193 kts | 257° |
| 2026-05-05 19:53 | 44.80780 | 0.54476 | 2879 ft | 179 kts | 258° |
| 2026-05-05 19:53 | 44.80503 | 0.52828 | 2765 ft | 168 kts | 258° |
| 2026-05-05 19:54 | 44.80237 | 0.51240 | 2540 ft | 165 kts | 258° |
| 2026-05-05 19:54 | 44.79973 | 0.49683 | 2289 ft | 162 kts | 259° |
| 2026-05-05 19:54 | 44.79718 | 0.48175 | 2126 ft | 153 kts | 258° |
| 2026-05-05 19:54 | 44.79483 | 0.46767 | 1969 ft | 142 kts | 259° |
| 2026-05-05 19:55 | 44.79250 | 0.45406 | 1994 ft | 144 kts | 259° |
| 2026-05-05 19:55 | 44.79021 | 0.44056 | 1802 ft | 143 kts | 259° |
| 2026-05-05 19:55 | 44.78903 | 0.42728 | 1536 ft | 130 kts | 282° |
| 2026-05-05 19:55 | 44.79247 | 0.41632 | 1503 ft | 123 kts | 305° |
| 2026-05-05 19:56 | 44.79908 | 0.40871 | 1486 ft | 126 kts | 331° |
| 2026-05-05 19:56 | 44.80749 | 0.40613 | 1491 ft | 129 kts | 357° |
| 2026-05-05 19:56 | 44.81646 | 0.40891 | 1485 ft | 135 kts | 24° |
| 2026-05-05 19:56 | 44.82358 | 0.41819 | 1489 ft | 143 kts | 54° |
| 2026-05-05 19:57 | 44.82712 | 0.43109 | 1501 ft | 147 kts | 77° |
| 2026-05-05 19:57 | 44.82806 | 0.44086 | 1498 ft | 149 kts | 86° |
| 2026-05-05 19:57 | 44.82762 | 0.46009 | 1189 ft | 151 kts | 92° |
| 2026-05-05 19:57 | 44.82696 | 0.47454 | 785 ft | 144 kts | 93° |
| 2026-05-05 19:58 | 44.82622 | 0.48854 | 501 ft | 144 kts | 96° |
| 2026-05-05 19:58 | 44.82547 | 0.50279 | 300 ft | 146 kts | 96° |
| 2026-05-05 19:58 | 44.82463 | 0.51656 | 177 ft | 121 kts | 94° |
| 2026-05-05 19:58 | 44.82419 | 0.52444 | 177 ft | 39 kts | 94° |
| 2026-05-05 19:59 | 44.82412 | 0.52538 | 177 ft | 8 kts | 108° |
| 2026-05-05 19:59 | 44.82421 | 0.52611 | 177 ft | 4 kts | 343° |
| 2026-05-05 19:59 | 44.82429 | 0.52556 | 177 ft | 11 kts | 268° |
| 2026-05-05 19:59 | 44.82428 | 0.52376 | 178 ft | 24 kts | 274° |
| 2026-05-05 20:00 | 44.82442 | 0.52130 | 178 ft | 21 kts | 269° |
| 2026-05-05 20:00 | 44.82383 | 0.52052 | 178 ft | 19 kts | 193° |
| 2026-05-05 20:00 | 44.82291 | 0.51994 | 177 ft | 15 kts | 246° |
| 2026-05-05 20:00 | 44.82287 | 0.51961 | 177 ft | 3 kts | 266° |
| 2026-05-05 20:01 | 44.82286 | 0.51914 | 177 ft | 7 kts | 273° |
| 2026-05-05 20:01 | 44.82291 | 0.51828 | 177 ft | 10 kts | 275° |
| 2026-05-05 20:01 | 44.82299 | 0.51710 | 177 ft | 14 kts | 275° |
| 2026-05-05 20:01 | 44.82299 | 0.51600 | 177 ft | 10 kts | 234° |
| 2026-05-05 20:02 | 44.82256 | 0.51585 | 177 ft | 0 kts | 184° |
| 2026-05-05 20:02 | 44.82256 | 0.51586 | 177 ft | 0 kts | 184° |
| 2026-05-05 20:03 | 44.82256 | 0.51585 | 177 ft | 0 kts | 184° |
| 2026-05-05 20:12 | 44.82256 | 0.51586 | 177 ft | 0 kts | 184° |
| 2026-05-05 20:12 | 44.82256 | 0.51585 | 177 ft | 0 kts | 184° |
| 2026-05-05 20:13 | 44.82256 | 0.51586 | 177 ft | 0 kts | 184° |
| 2026-05-05 20:13 | 44.82256 | 0.51585 | 177 ft | 0 kts | 184° |
| 2026-05-05 20:14 | 44.82256 | 0.51586 | 177 ft | 0 kts | 184° |
| 2026-05-05 20:14 | 44.82256 | 0.51585 | 177 ft | 0 kts | 184° |